Time;durP1;ratioP1;P1;durP2;ratioP2;P2;SDS_P1;SDS_P2;PMS_P1;PMS_P2;Temp;Humidity;BMP_temperature;BMP_pressure;BME280_temperature;BME280_humidity;BME280_pressure;Samples;Min_cycle;Max_cycle;Signal;HPM_P1;HPM_P2
2022/05/28 00:00:20;;;;;;;1.45;1.17;;;21.40;59.20;;;;;;5075731;28;20198;-71
2022/05/28 00:02:46;;;;;;;1.10;1.08;;;21.40;59.20;;;;;;5074945;28;20213;-72
2022/05/28 00:05:12;;;;;;;1.40;1.30;;;21.40;59.30;;;;;;5074592;28;20560;-72
2022/05/28 00:07:39;;;;;;;1.35;1.25;;;21.40;59.30;;;;;;5059130;28;20576;-72
2022/05/28 00:10:08;;;;;;;1.30;1.20;;;21.40;59.30;;;;;;5076087;28;20269;-72
2022/05/28 00:12:34;;;;;;;0.95;0.93;;;21.40;59.30;;;;;;5074821;28;20448;-72
2022/05/28 00:15:00;;;;;;;1.45;1.20;;;21.40;59.30;;;;;;5074736;28;20261;-72
2022/05/28 00:17:25;;;;;;;1.25;1.20;;;21.40;59.30;;;;;;5074428;28;20201;-72
2022/05/28 00:19:51;;;;;;;1.50;1.23;;;21.40;59.30;;;;;;5074772;28;20198;-71
2022/05/28 00:22:18;;;;;;;1.40;1.30;;;21.40;59.30;;;;;;5074064;28;20276;-72
2022/05/28 00:24:44;;;;;;;1.25;1.17;;;21.40;59.20;;;;;;5074504;28;20362;-72
2022/05/28 00:27:10;;;;;;;1.50;1.40;;;21.40;59.30;;;;;;5057600;28;20202;-72
2022/05/28 00:29:37;;;;;;;1.30;1.20;;;21.40;59.30;;;;;;5074076;28;20289;-72
2022/05/28 00:32:04;;;;;;;1.50;1.40;;;21.40;59.30;;;;;;5057426;28;20272;-72
2022/05/28 00:34:30;;;;;;;1.58;1.33;;;21.40;59.30;;;;;;5075783;28;20215;-72
2022/05/28 00:36:56;;;;;;;1.35;1.25;;;21.40;59.20;;;;;;5073911;28;20221;-72
2022/05/28 00:39:22;;;;;;;1.33;1.20;;;21.30;59.20;;;;;;5074937;28;20212;-72
2022/05/28 00:41:47;;;;;;;1.48;1.38;;;21.30;59.20;;;;;;5074341;28;20194;-72
2022/05/28 00:44:13;;;;;;;1.48;1.38;;;21.30;59.20;;;;;;5074421;28;20205;-72
2022/05/28 00:46:42;;;;;;;1.58;1.48;;;21.40;59.20;;;;;;5073959;28;20206;-72
2022/05/28 00:49:23;;;;;;;1.35;1.25;;;21.40;59.30;;;;;;5057931;28;20182;-72
2022/05/28 00:51:54;;;;;;;1.50;1.40;;;21.30;59.20;;;;;;5074250;28;20196;-72
2022/05/28 00:54:21;;;;;;;1.30;1.20;;;21.30;59.20;;;;;;5075141;28;20537;-72
2022/05/28 00:56:48;;;;;;;1.10;1.10;;;21.30;59.20;;;;;;5074084;28;20584;-72
2022/05/28 00:59:14;;;;;;;1.20;1.10;;;21.30;59.20;;;;;;5057858;28;20189;-72
2022/05/28 01:01:41;;;;;;;1.83;1.40;;;21.30;59.20;;;;;;5074429;28;20192;-72
2022/05/28 01:04:21;;;;;;;1.20;1.10;;;21.30;59.20;;;;;;5060447;28;20220;-72
2022/05/28 01:07:14;;;;;;;1.40;1.30;;;21.30;59.20;;;;;;5060983;28;20197;-72
2022/05/28 01:09:53;;;;;;;1.02;1.02;;;21.30;59.20;;;;;;5078243;28;20190;-72
2022/05/28 01:12:47;;;;;;;1.88;1.55;;;21.40;59.30;;;;;;5077260;28;20192;-72
2022/05/28 01:15:26;;;;;;;1.10;1.10;;;21.40;59.30;;;;;;5077708;28;20182;-72
2022/05/28 01:18:01;;;;;;;1.52;1.35;;;21.30;59.20;;;;;;5095350;28;20173;-72
2022/05/28 01:20:36;;;;;;;1.00;1.00;;;21.30;59.30;;;;;;5079213;28;20257;-71
2022/05/28 01:23:34;;;;;;;1.27;1.17;;;21.30;59.20;;;;;;5077778;28;20201;-72
2022/05/28 01:26:12;;;;;;;1.42;1.20;;;21.40;59.30;;;;;;5078379;28;20276;-71
2022/05/28 01:28:55;;;;;;;1.73;1.27;;;21.40;59.30;;;;;;5078988;28;20174;-72
2022/05/28 01:31:25;;;;;;;1.38;1.27;;;21.40;59.30;;;;;;5061507;28;20178;-71
2022/05/28 01:33:52;;;;;;;1.45;1.35;;;21.40;59.40;;;;;;5079021;28;20184;-72
2022/05/28 01:36:19;;;;;;;1.13;1.10;;;21.40;59.40;;;;;;5096754;28;20205;-72
2022/05/28 01:38:47;;;;;;;1.05;1.05;;;21.40;59.30;;;;;;5098403;28;20300;-72
2022/05/28 01:41:15;;;;;;;1.52;1.38;;;21.30;59.20;;;;;;5081886;28;20558;-72
2022/05/28 01:43:46;;;;;;;1.40;1.30;;;21.30;59.20;;;;;;5081292;28;20209;-72
2022/05/28 01:46:16;;;;;;;1.35;1.20;;;21.40;59.30;;;;;;5098292;28;20554;-72
2022/05/28 01:48:45;;;;;;;1.40;1.30;;;21.40;59.40;;;;;;5081764;28;20177;-72
2022/05/28 01:51:14;;;;;;;1.30;1.20;;;21.30;59.30;;;;;;5100154;28;20207;-72
2022/05/28 01:56:29;;;;;;;1.35;1.25;;;21.40;59.40;;;;;;5095087;28;20216;-72
2022/05/28 01:58:55;;;;;;;1.60;1.50;;;21.40;59.40;;;;;;5079477;28;20186;-71
2022/05/28 02:01:21;;;;;;;1.48;1.38;;;21.30;59.30;;;;;;5078172;28;20189;-72
2022/05/28 02:03:51;;;;;;;1.70;1.30;;;21.30;59.30;;;;;;5061523;28;20237;-72
2022/05/28 02:06:17;;;;;;;2.40;1.40;;;21.30;59.30;;;;;;5061199;28;20255;-72
2022/05/28 02:08:47;;;;;;;1.65;1.52;;;21.30;59.30;;;;;;5078238;28;20188;-72
2022/05/28 02:12:02;;;;;;;1.42;1.30;;;21.30;59.30;;;;;;5079105;28;20174;-71
2022/05/28 02:15:05;;;;;;;1.20;1.10;;;21.30;59.30;;;;;;5077197;28;20250;-72
2022/05/28 02:18:07;;;;;;;1.48;1.30;;;21.30;59.30;;;;;;5062510;28;20209;-72
2022/05/28 02:21:05;;;;;;;2.08;1.40;;;21.30;59.30;;;;;;5079969;28;20173;-71
2022/05/28 02:23:45;;;;;;;1.10;1.02;;;21.30;59.30;;;;;;5062019;28;20201;-71
2022/05/28 02:26:46;;;;;;;1.50;1.15;;;21.30;59.30;;;;;;5077916;28;20623;-72
2022/05/28 02:29:13;;;;;;;1.98;1.67;;;21.30;59.30;;;;;;5060810;28;20209;-72
2022/05/28 02:31:45;;;;;;;1.40;1.30;;;21.30;59.30;;;;;;5076575;28;20257;-72
2022/05/28 02:34:12;;;;;;;1.65;1.50;;;21.30;59.30;;;;;;5061521;28;20178;-72
2022/05/28 02:36:40;;;;;;;1.70;1.50;;;21.30;59.30;;;;;;5076857;28;20212;-71
2022/05/28 02:39:06;;;;;;;2.05;1.65;;;21.30;59.30;;;;;;5076545;28;20669;-72
2022/05/28 02:41:32;;;;;;;2.13;1.40;;;21.30;59.30;;;;;;5077582;28;20188;-72
2022/05/28 02:43:58;;;;;;;1.48;1.33;;;21.30;59.30;;;;;;5077274;28;20245;-72
2022/05/28 02:46:24;;;;;;;1.48;1.38;;;21.30;59.30;;;;;;5078530;28;20197;-72
2022/05/28 02:48:50;;;;;;;1.08;1.00;;;21.30;59.30;;;;;;5076334;28;20210;-71
2022/05/28 02:51:22;;;;;;;1.42;1.33;;;21.30;59.30;;;;;;5076538;28;20192;-72
2022/05/28 02:53:50;;;;;;;1.45;1.30;;;21.30;59.30;;;;;;5075069;28;20189;-72
2022/05/28 02:56:17;;;;;;;1.00;1.00;;;21.30;59.30;;;;;;5077630;28;20202;-71
2022/05/28 02:58:43;;;;;;;1.20;1.10;;;21.30;59.30;;;;;;5060069;28;20186;-72
2022/05/28 03:01:35;;;;;;;1.30;1.23;;;21.30;59.30;;;;;;5077143;28;20297;-72
2022/05/28 03:04:04;;;;;;;1.35;1.25;;;21.30;59.30;;;;;;5090085;28;20233;-72
2022/05/28 03:06:30;;;;;;;1.88;1.75;;;21.30;59.30;;;;;;5094135;28;20280;-72
2022/05/28 03:08:56;;;;;;;1.88;1.70;;;21.30;59.30;;;;;;5093885;28;20216;-72
2022/05/28 03:11:22;;;;;;;1.58;1.48;;;21.30;59.30;;;;;;5076780;28;20220;-72
2022/05/28 03:13:49;;;;;;;1.70;1.60;;;21.30;59.20;;;;;;5077023;28;20213;-72
2022/05/28 03:16:16;;;;;;;1.75;1.55;;;21.30;59.20;;;;;;5078583;28;20422;-72
2022/05/28 03:18:42;;;;;;;3.15;1.98;;;21.30;59.20;;;;;;5094029;28;20181;-72
2022/05/28 03:21:08;;;;;;;2.33;1.70;;;21.30;59.30;;;;;;5060453;28;20194;-71
2022/05/28 03:23:34;;;;;;;1.98;1.55;;;21.30;59.30;;;;;;5077828;28;20212;-72
2022/05/28 03:26:12;;;;;;;1.67;1.40;;;21.30;59.20;;;;;;5077538;28;20197;-72
2022/05/28 03:28:38;;;;;;;1.38;1.27;;;21.30;59.30;;;;;;5103410;28;20191;-72
2022/05/28 03:31:04;;;;;;;1.42;1.30;;;21.30;59.30;;;;;;5096595;28;20338;-72
2022/05/28 03:33:30;;;;;;;1.30;1.20;;;21.30;59.30;;;;;;5060359;28;20213;-72
2022/05/28 03:35:56;;;;;;;1.85;1.30;;;21.30;59.30;;;;;;5060007;28;20209;-72
2022/05/28 03:38:21;;;;;;;1.40;1.30;;;21.30;59.30;;;;;;5078145;28;20664;-72
2022/05/28 03:40:47;;;;;;;1.15;1.10;;;21.30;59.30;;;;;;5060318;28;20205;-72
2022/05/28 03:43:13;;;;;;;1.23;1.13;;;21.30;59.30;;;;;;5099240;28;20209;-72
2022/05/28 03:45:39;;;;;;;1.52;1.40;;;21.30;59.30;;;;;;5078722;28;20182;-72
2022/05/28 03:48:08;;;;;;;1.38;1.27;;;21.30;59.30;;;;;;5075584;28;20342;-72
2022/05/28 03:50:34;;;;;;;1.60;1.30;;;21.30;59.30;;;;;;5096555;28;20276;-71
2022/05/28 03:53:00;;;;;;;2.15;1.42;;;21.30;59.30;;;;;;5077149;28;20177;-72
2022/05/28 03:55:26;;;;;;;1.65;1.48;;;21.30;59.30;;;;;;5078372;28;20192;-72
2022/05/28 03:57:51;;;;;;;1.80;1.70;;;21.30;59.30;;;;;;5095910;28;20181;-72
2022/05/28 04:00:18;;;;;;;1.88;1.63;;;21.30;59.30;;;;;;5094959;28;20241;-72
2022/05/28 04:02:44;;;;;;;1.70;1.60;;;21.30;59.20;;;;;;5094461;28;20230;-72
2022/05/28 04:05:10;;;;;;;1.52;1.40;;;21.30;59.20;;;;;;5094381;28;20699;-72
2022/05/28 04:07:39;;;;;;;3.47;1.55;;;21.30;59.30;;;;;;5095038;28;20284;-72
2022/05/28 04:10:07;;;;;;;1.92;1.77;;;21.30;59.30;;;;;;5094697;28;20184;-72
2022/05/28 04:12:34;;;;;;;1.60;1.50;;;21.30;59.20;;;;;;5096064;28;20173;-72
2022/05/28 04:15:00;;;;;;;2.65;1.50;;;21.30;59.20;;;;;;5096571;28;20230;-72
2022/05/28 04:17:26;;;;;;;1.30;1.20;;;21.30;59.30;;;;;;5095688;28;20220;-72
2022/05/28 04:19:51;;;;;;;1.13;1.13;;;21.20;59.20;;;;;;5095146;28;20193;-72
2022/05/28 04:22:18;;;;;;;1.27;1.15;;;21.30;59.30;;;;;;5096107;28;20185;-72
2022/05/28 04:24:43;;;;;;;2.08;1.40;;;21.20;59.20;;;;;;5097406;28;20189;-72
2022/05/28 04:27:09;;;;;;;1.23;1.13;;;21.30;59.30;;;;;;5095450;28;20207;-72
2022/05/28 04:29:35;;;;;;;1.40;1.27;;;21.30;59.20;;;;;;5097027;28;20196;-72
2022/05/28 04:32:01;;;;;;;1.40;1.30;;;21.30;59.20;;;;;;5097047;28;20177;-72
2022/05/28 04:34:26;;;;;;;1.60;1.50;;;21.30;59.30;;;;;;5096263;28;20208;-72
2022/05/28 04:36:52;;;;;;;1.42;1.33;;;21.30;59.30;;;;;;5095928;28;20204;-72
2022/05/28 04:39:18;;;;;;;1.35;1.25;;;21.30;59.30;;;;;;5096538;28;20188;-72
2022/05/28 04:41:44;;;;;;;1.52;1.42;;;21.20;59.20;;;;;;5097229;28;20181;-72
2022/05/28 04:44:09;;;;;;;1.40;1.30;;;21.30;59.30;;;;;;5096187;28;20233;-72
2022/05/28 04:46:35;;;;;;;1.83;1.20;;;21.30;59.30;;;;;;5095863;28;20207;-72
2022/05/28 04:49:01;;;;;;;1.50;1.40;;;21.30;59.30;;;;;;5096220;28;20261;-72
2022/05/28 04:51:27;;;;;;;1.52;1.42;;;21.30;59.30;;;;;;5097032;28;20195;-72
2022/05/28 04:53:52;;;;;;;1.17;1.17;;;21.30;59.30;;;;;;5095717;28;20185;-72
2022/05/28 04:56:18;;;;;;;1.50;1.05;;;21.30;59.30;;;;;;5095353;28;20209;-71
2022/05/28 04:58:44;;;;;;;1.55;1.30;;;21.20;59.20;;;;;;5078016;28;20189;-72
2022/05/28 05:01:20;;;;;;;1.65;1.40;;;21.20;59.20;;;;;;5077272;28;20200;-72
2022/05/28 05:03:46;;;;;;;1.45;1.13;;;21.30;59.30;;;;;;5095100;28;20204;-72
2022/05/28 05:06:12;;;;;;;2.47;1.45;;;21.20;59.20;;;;;;5095456;28;20201;-72
2022/05/28 05:08:38;;;;;;;1.90;1.40;;;21.20;59.20;;;;;;5094640;28;20189;-72
2022/05/28 05:11:04;;;;;;;1.50;1.40;;;21.20;59.20;;;;;;5094275;28;20177;-71
2022/05/28 05:13:29;;;;;;;2.15;1.38;;;21.20;59.10;;;;;;5094355;28;20196;-72
2022/05/28 05:15:55;;;;;;;1.40;1.30;;;21.20;59.20;;;;;;5095070;28;20246;-72
2022/05/28 05:18:21;;;;;;;1.38;1.27;;;21.20;59.20;;;;;;5077348;28;20187;-72
2022/05/28 05:20:47;;;;;;;1.73;1.50;;;21.20;59.20;;;;;;5078146;28;20184;-72
2022/05/28 05:23:13;;;;;;;1.75;1.20;;;21.20;59.20;;;;;;5096620;28;20216;-72
2022/05/28 05:25:39;;;;;;;1.85;1.40;;;21.20;59.20;;;;;;5094866;28;20226;-71
2022/05/28 05:28:06;;;;;;;1.25;0.93;;;21.20;59.20;;;;;;5079051;28;20215;-72
2022/05/28 05:30:32;;;;;;;1.27;1.17;;;21.20;59.10;;;;;;5097349;28;20241;-72
2022/05/28 05:32:58;;;;;;;1.15;1.13;;;21.20;59.10;;;;;;5096354;28;20185;-72
2022/05/28 05:35:23;;;;;;;1.55;1.30;;;21.20;59.10;;;;;;5096794;28;20189;-71
2022/05/28 05:37:49;;;;;;;1.25;1.02;;;21.20;59.10;;;;;;5078895;28;20184;-72
2022/05/28 05:40:15;;;;;;;1.52;1.30;;;21.20;59.10;;;;;;5078720;28;20209;-72
2022/05/28 05:42:41;;;;;;;2.10;1.23;;;21.20;58.90;;;;;;5095108;28;20209;-72
2022/05/28 05:45:09;;;;;;;1.35;1.25;;;21.20;58.90;;;;;;5095428;28;20181;-72
2022/05/28 05:47:35;;;;;;;1.85;1.30;;;21.20;59.00;;;;;;5095525;28;20209;-72
2022/05/28 05:50:00;;;;;;;2.28;1.23;;;21.20;58.90;;;;;;5083228;28;20182;-72
2022/05/28 05:52:26;;;;;;;1.27;1.02;;;21.20;58.90;;;;;;5099973;28;20196;-72
2022/05/28 05:54:53;;;;;;;2.22;1.65;;;21.20;58.80;;;;;;5120029;28;20173;-72
2022/05/28 05:57:19;;;;;;;2.47;1.23;;;21.20;58.70;;;;;;5103410;28;20222;-72
2022/05/28 05:59:45;;;;;;;2.90;1.40;;;21.20;58.80;;;;;;5120172;28;20188;-72
2022/05/28 06:02:11;;;;;;;2.60;1.30;;;21.20;58.50;;;;;;5119143;28;20160;-71
2022/05/28 06:04:37;;;;;;;2.95;1.38;;;21.20;58.50;;;;;;5121507;28;20212;-72
2022/05/28 06:07:07;;;;;;;1.65;1.27;;;21.20;58.30;;;;;;5119671;28;20204;-71
2022/05/28 06:09:34;;;;;;;1.30;1.20;;;21.20;58.40;;;;;;5120274;28;20267;-72
2022/05/28 06:12:00;;;;;;;1.00;1.00;;;21.20;58.50;;;;;;5117639;28;20229;-72
2022/05/28 06:14:25;;;;;;;2.65;1.42;;;21.10;58.20;;;;;;5118970;28;20188;-72
2022/05/28 06:16:51;;;;;;;2.20;1.52;;;21.10;58.20;;;;;;5119478;28;20235;-72
2022/05/28 06:19:17;;;;;;;2.75;1.50;;;21.10;58.10;;;;;;5118521;28;20218;-72
2022/05/28 06:21:42;;;;;;;1.50;1.30;;;21.10;58.10;;;;;;5102225;28;20187;-72
2022/05/28 06:24:08;;;;;;;1.40;1.30;;;21.10;58.00;;;;;;5120429;28;20218;-72
2022/05/28 06:26:34;;;;;;;2.15;1.40;;;21.10;57.90;;;;;;5102611;28;20282;-72
2022/05/28 06:29:00;;;;;;;1.25;1.15;;;21.10;57.90;;;;;;5096105;28;20201;-72
2022/05/28 06:31:26;;;;;;;1.45;1.30;;;21.20;57.90;;;;;;5094908;28;20212;-71
2022/05/28 06:33:52;;;;;;;3.60;1.48;;;21.10;57.70;;;;;;5076612;28;20189;-72
2022/05/28 06:36:17;;;;;;;2.25;1.30;;;21.20;57.70;;;;;;5079175;28;20212;-72
2022/05/28 06:38:45;;;;;;;1.70;1.20;;;21.20;57.70;;;;;;5092999;28;20195;-72
2022/05/28 06:41:12;;;;;;;1.67;1.40;;;21.20;57.40;;;;;;5096155;28;20368;-72
2022/05/28 06:43:38;;;;;;;1.92;1.08;;;21.20;57.30;;;;;;5078704;28;20262;-72
2022/05/28 06:46:07;;;;;;;2.13;1.10;;;21.20;57.90;;;;;;5088727;28;20264;-72
2022/05/28 06:48:33;;;;;;;1.77;1.10;;;21.20;57.40;;;;;;5087384;28;20186;-72
2022/05/28 06:51:02;;;;;;;1.70;1.40;;;21.20;57.60;;;;;;5088243;28;20189;-72
2022/05/28 06:53:37;;;;;;;3.08;1.50;;;21.20;57.40;;;;;;5083569;28;20573;-72
2022/05/28 06:56:04;;;;;;;2.17;1.20;;;21.10;57.50;;;;;;5087351;28;20232;-72
2022/05/28 06:58:31;;;;;;;3.22;1.35;;;21.20;57.50;;;;;;5097590;28;20184;-72
2022/05/28 07:00:57;;;;;;;4.10;1.63;;;21.20;57.40;;;;;;5080459;28;20208;-72
2022/05/28 07:03:26;;;;;;;1.98;1.10;;;21.20;57.30;;;;;;5080583;28;20224;-72
2022/05/28 07:05:53;;;;;;;1.73;1.33;;;21.20;57.30;;;;;;5090766;28;20238;-72
2022/05/28 07:08:20;;;;;;;1.30;1.00;;;21.20;57.30;;;;;;5083764;28;20169;-72
2022/05/28 07:10:56;;;;;;;1.98;1.20;;;21.20;57.40;;;;;;5079372;28;20185;-72
2022/05/28 07:13:24;;;;;;;2.15;1.00;;;21.20;57.00;;;;;;5098108;28;20203;-72
2022/05/28 07:15:51;;;;;;;1.45;1.10;;;21.20;57.00;;;;;;5099157;28;20268;-71
2022/05/28 07:18:18;;;;;;;1.45;1.02;;;21.20;57.00;;;;;;5080053;28;20207;-72
2022/05/28 07:20:44;;;;;;;1.27;1.05;;;21.20;57.10;;;;;;5080583;28;20189;-72
2022/05/28 07:23:22;;;;;;;2.08;1.25;;;21.20;56.90;;;;;;5080132;28;20205;-71
2022/05/28 07:25:48;;;;;;;2.13;1.30;;;21.20;56.90;;;;;;5076501;28;20206;-71
2022/05/28 07:28:24;;;;;;;1.88;1.20;;;21.20;57.20;;;;;;5077207;28;20603;-71
2022/05/28 07:31:02;;;;;;;2.33;1.30;;;21.20;56.80;;;;;;5074821;28;20264;-72
2022/05/28 07:33:32;;;;;;;1.55;1.20;;;21.20;57.00;;;;;;5060750;28;20659;-72
2022/05/28 07:35:59;;;;;;;2.00;1.20;;;21.20;56.80;;;;;;5077622;28;20209;-72
2022/05/28 07:38:27;;;;;;;3.38;1.48;;;21.20;56.70;;;;;;5061358;28;20181;-72
2022/05/28 07:40:54;;;;;;;3.22;1.30;;;21.20;56.50;;;;;;5061052;28;20248;-72
2022/05/28 07:43:21;;;;;;;1.98;1.20;;;21.20;56.40;;;;;;5060670;28;20218;-72
2022/05/28 07:45:48;;;;;;;2.80;1.35;;;21.20;56.30;;;;;;5060589;28;20213;-71
2022/05/28 07:48:16;;;;;;;2.45;1.40;;;21.30;56.10;;;;;;5077510;28;20209;-72
2022/05/28 07:50:43;;;;;;;1.55;1.30;;;21.30;56.10;;;;;;5059095;28;20186;-72
2022/05/28 07:53:10;;;;;;;1.95;1.10;;;21.20;55.80;;;;;;5077018;28;20208;-72
2022/05/28 07:55:36;;;;;;;1.58;1.05;;;21.30;55.70;;;;;;5059885;28;20185;-71
2022/05/28 07:58:20;;;;;;;1.67;1.23;;;21.30;55.80;;;;;;5059654;28;20188;-72
2022/05/28 08:00:49;;;;;;;1.58;1.13;;;21.30;56.00;;;;;;5077495;28;20204;-72
2022/05/28 08:03:16;;;;;;;2.15;1.15;;;21.30;56.20;;;;;;5076426;28;20217;-71
2022/05/28 08:05:47;;;;;;;1.92;1.20;;;21.30;56.10;;;;;;5059549;28;20197;-71
2022/05/28 08:08:14;;;;;;;2.20;1.30;;;21.30;56.10;;;;;;5076206;28;20189;-72
2022/05/28 08:10:40;;;;;;;2.83;1.23;;;21.30;56.00;;;;;;5086961;28;20234;-72
2022/05/28 08:13:13;;;;;;;3.25;1.45;;;21.30;55.80;;;;;;5095846;28;20263;-71
2022/05/28 08:15:42;;;;;;;2.40;1.25;;;21.40;55.80;;;;;;5080314;28;20192;-72
2022/05/28 08:18:10;;;;;;;2.22;1.20;;;21.40;55.70;;;;;;5096597;28;20259;-72
2022/05/28 08:23:21;;;;;;;2.83;1.30;;;21.30;54.90;;;;;;5096573;28;20219;-71
2022/05/28 08:25:48;;;;;;;2.50;1.10;;;21.40;55.10;;;;;;5095363;28;20551;-71
2022/05/28 08:28:17;;;;;;;2.72;1.40;;;21.40;55.40;;;;;;5094442;28;20185;-72
2022/05/28 08:30:43;;;;;;;2.28;1.30;;;21.40;55.20;;;;;;5078011;28;20199;-71
2022/05/28 08:33:12;;;;;;;3.03;1.40;;;21.40;55.20;;;;;;5094628;28;20193;-72
2022/05/28 08:35:40;;;;;;;2.33;1.15;;;21.40;55.20;;;;;;5094601;28;20181;-72
2022/05/28 08:38:10;;;;;;;1.90;1.10;;;21.40;55.40;;;;;;5094952;28;20218;-72
2022/05/28 08:41:03;;;;;;;1.85;1.20;;;21.40;55.50;;;;;;5094618;28;20639;-72
2022/05/28 08:43:34;;;;;;;1.67;1.25;;;21.40;55.30;;;;;;5090371;28;20220;-72
2022/05/28 08:46:01;;;;;;;1.67;1.10;;;21.40;55.20;;;;;;5095617;28;20197;-72
2022/05/28 08:48:48;;;;;;;2.25;1.10;;;21.40;55.20;;;;;;5079185;28;20176;-71
2022/05/28 08:51:46;;;;;;;3.03;1.20;;;21.40;55.10;;;;;;5095833;28;20671;-71
2022/05/28 08:54:57;;;;;;;3.33;1.15;;;21.40;54.80;;;;;;5071641;28;20181;-72
2022/05/28 08:58:00;;;;;;;2.55;1.40;;;21.40;55.10;;;;;;5075570;28;20209;-72
2022/05/28 09:00:40;;;;;;;1.63;1.15;;;21.40;55.00;;;;;;5059365;28;20193;-72
2022/05/28 09:03:16;;;;;;;3.35;1.20;;;21.50;54.80;;;;;;5058973;28;20206;-72
2022/05/28 09:06:09;;;;;;;2.22;1.10;;;21.50;55.10;;;;;;5075624;28;20205;-72
2022/05/28 09:08:38;;;;;;;1.42;1.05;;;21.50;55.10;;;;;;5077057;28;20163;-73
2022/05/28 09:11:31;;;;;;;1.95;1.10;;;21.50;55.00;;;;;;5058496;28;20186;-72
2022/05/28 09:14:21;;;;;;;1.70;1.13;;;21.50;55.00;;;;;;5057701;28;20174;-72
2022/05/28 09:16:51;;;;;;;2.55;1.13;;;21.50;54.60;;;;;;5057980;28;20206;-71
2022/05/28 09:19:29;;;;;;;1.48;1.10;;;21.50;54.70;;;;;;5074950;28;20190;-72
2022/05/28 09:21:54;;;;;;;1.75;1.13;;;21.50;54.60;;;;;;5076313;28;20181;-72
2022/05/28 09:24:25;;;;;;;1.70;0.88;;;21.50;54.40;;;;;;5076271;28;20221;-72
2022/05/28 09:27:22;;;;;;;3.10;1.27;;;21.50;54.80;;;;;;5078533;28;20266;-72
2022/05/28 09:29:57;;;;;;;3.22;1.27;;;21.50;54.80;;;;;;5062224;28;20174;-73
2022/05/28 09:32:50;;;;;;;1.73;0.85;;;21.50;55.00;;;;;;5078496;28;20177;-71
2022/05/28 09:35:43;;;;;;;1.80;0.90;;;21.50;54.60;;;;;;5079172;28;20193;-72
2022/05/28 09:38:54;;;;;;;1.55;0.93;;;21.50;54.40;;;;;;5061781;28;20186;-72
2022/05/28 09:41:42;;;;;;;1.52;0.88;;;21.40;54.50;;;;;;5061879;28;20284;-71
2022/05/28 09:44:26;;;;;;;1.38;0.90;;;21.50;54.60;;;;;;5078563;28;20210;-72
2022/05/28 09:46:52;;;;;;;1.35;0.95;;;21.50;54.50;;;;;;5081802;28;20225;-71
2022/05/28 09:49:24;;;;;;;2.30;1.10;;;21.50;54.60;;;;;;5079549;28;20182;-72
2022/05/28 09:52:25;;;;;;;1.67;0.90;;;21.50;54.60;;;;;;5061948;28;20189;-72
2022/05/28 09:54:52;;;;;;;2.60;1.30;;;21.50;54.40;;;;;;5080381;28;20187;-72
2022/05/28 09:57:29;;;;;;;1.75;0.80;;;21.50;54.20;;;;;;5119410;28;20226;-72
2022/05/28 10:00:06;;;;;;;1.77;0.90;;;21.50;54.20;;;;;;5119558;28;20197;-72
2022/05/28 10:02:41;;;;;;;2.30;1.10;;;21.40;54.30;;;;;;5120260;28;20171;-72
2022/05/28 10:05:16;;;;;;;1.48;0.70;;;21.50;54.50;;;;;;5119753;28;20188;-72
2022/05/28 10:07:46;;;;;;;1.45;1.10;;;21.50;54.40;;;;;;5119296;28;20662;-72
2022/05/28 10:10:33;;;;;;;1.17;0.98;;;21.50;54.30;;;;;;5119778;28;20176;-72
2022/05/28 10:13:10;;;;;;;1.38;0.80;;;21.50;54.40;;;;;;5103086;28;20653;-72
2022/05/28 10:15:59;;;;;;;1.30;0.73;;;21.50;53.60;;;;;;5118522;28;20226;-72
2022/05/28 10:18:40;;;;;;;2.03;1.05;;;21.50;54.10;;;;;;5118238;28;20178;-72
2022/05/28 10:21:17;;;;;;;1.05;0.85;;;21.50;53.90;;;;;;5117523;28;20191;-72
2022/05/28 10:23:52;;;;;;;1.70;0.77;;;21.50;54.40;;;;;;5117389;28;20196;-72
2022/05/28 10:26:29;;;;;;;0.88;0.77;;;21.50;54.00;;;;;;5116489;28;20271;-71
2022/05/28 10:29:00;;;;;;;2.42;1.15;;;21.50;54.10;;;;;;5118097;28;20175;-72
2022/05/28 10:31:40;;;;;;;2.08;0.95;;;21.50;53.80;;;;;;5099074;28;20175;-71
2022/05/28 10:34:07;;;;;;;1.52;1.00;;;21.50;53.90;;;;;;5116152;28;20280;-72
2022/05/28 10:36:35;;;;;;;1.58;0.80;;;21.50;53.50;;;;;;5114901;28;20208;-72
2022/05/28 10:39:11;;;;;;;1.30;0.95;;;21.50;54.00;;;;;;5116188;28;20172;-72
2022/05/28 10:41:40;;;;;;;0.85;0.80;;;21.50;53.80;;;;;;5115534;28;20175;-71
2022/05/28 10:44:06;;;;;;;1.05;0.80;;;21.50;53.70;;;;;;5116101;28;20210;-72
2022/05/28 10:47:03;;;;;;;2.03;0.80;;;21.50;53.90;;;;;;5115874;28;20204;-72
2022/05/28 10:50:01;;;;;;;1.77;0.90;;;21.50;54.00;;;;;;5117169;28;20212;-72
2022/05/28 10:52:52;;;;;;;1.08;0.77;;;21.50;53.80;;;;;;5098571;28;20215;-72
2022/05/28 10:55:29;;;;;;;1.77;0.68;;;21.50;53.60;;;;;;5116489;28;20187;-72
2022/05/28 10:58:41;;;;;;;2.10;0.80;;;21.50;53.80;;;;;;5117756;28;20187;-73
2022/05/28 11:01:45;;;;;;;0.90;0.70;;;21.50;53.90;;;;;;5116180;28;20191;-72
2022/05/28 11:04:30;;;;;;;1.27;0.90;;;21.50;53.70;;;;;;5084878;28;20250;-72
2022/05/28 11:07:34;;;;;;;1.17;0.70;;;21.50;53.70;;;;;;5098252;28;20212;-72
2022/05/28 11:10:35;;;;;;;1.55;0.80;;;21.50;53.80;;;;;;5115919;28;20187;-72
2022/05/28 11:13:54;;;;;;;1.30;0.80;;;21.50;54.00;;;;;;5118295;28;20216;-72
2022/05/28 11:17:06;;;;;;;1.98;0.98;;;21.50;53.90;;;;;;5106795;28;20212;-72
2022/05/28 11:19:49;;;;;;;1.33;0.80;;;21.40;53.80;;;;;;5118494;28;20233;-72
2022/05/28 11:23:04;;;;;;;0.80;0.80;;;21.50;53.80;;;;;;5118067;28;20188;-72
2022/05/28 11:25:47;;;;;;;1.63;0.80;;;21.50;53.60;;;;;;5101341;28;20225;-72
2022/05/28 11:28:28;;;;;;;1.08;0.75;;;21.40;53.30;;;;;;5117894;28;20663;-72
2022/05/28 11:31:06;;;;;;;1.55;0.88;;;21.50;53.20;;;;;;5118204;28;20176;-72
2022/05/28 11:33:39;;;;;;;1.67;0.88;;;21.50;53.80;;;;;;5117861;28;20255;-72
2022/05/28 11:36:36;;;;;;;1.40;0.90;;;21.50;53.70;;;;;;5101300;28;20207;-72
2022/05/28 11:39:32;;;;;;;1.67;0.80;;;21.50;53.70;;;;;;5101934;28;20175;-72
2022/05/28 11:42:31;;;;;;;1.50;0.77;;;21.50;53.40;;;;;;5101276;28;20180;-72
2022/05/28 11:45:00;;;;;;;1.73;0.80;;;21.40;53.10;;;;;;5108405;28;20221;-71
2022/05/28 11:47:40;;;;;;;0.98;0.65;;;21.40;53.50;;;;;;5077027;28;20197;-72
2022/05/28 11:53:47;;;;;;;1.40;0.70;;;21.50;53.40;;;;;;5076749;28;20185;-71
2022/05/28 11:56:19;;;;;;;1.20;0.80;;;21.50;53.30;;;;;;5076096;28;20275;-72
2022/05/28 11:58:51;;;;;;;1.02;0.77;;;21.50;53.10;;;;;;5076147;28;20202;-72
2022/05/28 12:01:22;;;;;;;1.80;0.75;;;21.50;53.20;;;;;;5062105;28;20185;-72
2022/05/28 12:03:48;;;;;;;1.45;0.93;;;21.40;53.20;;;;;;5077911;28;20206;-72
2022/05/28 12:06:40;;;;;;;0.80;0.80;;;21.40;53.10;;;;;;5075621;28;20197;-72
2022/05/28 12:09:15;;;;;;;0.82;0.73;;;21.40;53.20;;;;;;5059599;28;20201;-72
2022/05/28 12:12:02;;;;;;;2.42;0.70;;;21.50;53.40;;;;;;5076457;28;20206;-71
2022/05/28 12:14:39;;;;;;;1.15;0.73;;;21.40;53.20;;;;;;5060922;28;20207;-72
2022/05/28 12:17:17;;;;;;;1.17;0.65;;;21.40;53.00;;;;;;5075574;28;20209;-72
2022/05/28 12:19:58;;;;;;;1.58;0.90;;;21.40;53.20;;;;;;5059692;28;20189;-72
2022/05/28 12:22:26;;;;;;;2.80;0.85;;;21.40;53.30;;;;;;5077275;28;20184;-72
2022/05/28 12:25:16;;;;;;;0.90;0.70;;;21.40;53.20;;;;;;5058729;28;20214;-72
2022/05/28 12:27:56;;;;;;;2.47;1.15;;;21.40;52.90;;;;;;5077783;28;20224;-72
2022/05/28 12:30:48;;;;;;;1.08;0.75;;;21.40;53.10;;;;;;5060804;28;20225;-72
2022/05/28 12:33:47;;;;;;;1.23;0.65;;;21.40;52.70;;;;;;5074856;28;20197;-72
2022/05/28 12:36:30;;;;;;;1.65;0.95;;;21.50;53.00;;;;;;5077093;28;20251;-72
2022/05/28 12:39:19;;;;;;;1.95;1.00;;;21.50;52.90;;;;;;5077674;28;20264;-72
2022/05/28 12:41:59;;;;;;;0.88;0.77;;;21.40;53.10;;;;;;5061089;28;20331;-72
2022/05/28 12:44:26;;;;;;;1.27;0.75;;;21.50;53.10;;;;;;5061011;28;20304;-72
2022/05/28 12:46:56;;;;;;;1.23;0.98;;;21.50;53.10;;;;;;5060735;28;20235;-72
2022/05/28 12:49:34;;;;;;;1.50;0.90;;;21.50;52.90;;;;;;5061838;28;20190;-72
2022/05/28 12:52:52;;;;;;;1.13;0.70;;;21.40;52.90;;;;;;5061216;28;20228;-71
2022/05/28 12:55:38;;;;;;;1.33;0.70;;;21.40;53.10;;;;;;5062228;28;20231;-72
2022/05/28 12:58:06;;;;;;;1.42;0.93;;;21.40;53.10;;;;;;5058824;28;20190;-71
2022/05/28 13:00:58;;;;;;;1.52;0.90;;;21.40;52.90;;;;;;5062550;28;20657;-72
2022/05/28 13:03:30;;;;;;;1.85;0.80;;;21.50;52.90;;;;;;5063168;28;20213;-72
2022/05/28 13:06:19;;;;;;;1.02;0.73;;;21.50;52.60;;;;;;5087183;28;20201;-72
2022/05/28 13:09:05;;;;;;;1.75;0.90;;;21.40;52.80;;;;;;5100772;28;20176;-73
2022/05/28 13:11:46;;;;;;;3.78;0.90;;;21.40;52.40;;;;;;5082874;28;20259;-72
2022/05/28 13:14:31;;;;;;;1.17;0.60;;;21.40;52.80;;;;;;5080781;28;20241;-72
2022/05/28 13:17:18;;;;;;;1.25;0.90;;;21.40;52.90;;;;;;5062214;28;20276;-71
2022/05/28 13:20:07;;;;;;;2.15;0.88;;;21.40;53.00;;;;;;5077568;28;20534;-72
2022/05/28 13:22:54;;;;;;;1.70;0.90;;;21.40;52.40;;;;;;5089060;28;20203;-71
2022/05/28 13:25:47;;;;;;;1.73;1.00;;;21.40;52.90;;;;;;5098503;28;20315;-71
2022/05/28 13:28:56;;;;;;;1.52;0.73;;;21.40;53.10;;;;;;5098666;28;20173;-72
2022/05/28 13:31:31;;;;;;;2.35;0.90;;;21.40;52.80;;;;;;5097381;28;20184;-72